Time;durP1;ratioP1;P1;durP2;ratioP2;P2;SDS_P1;SDS_P2;PMS_P1;PMS_P2;Temp;Humidity;BMP_temperature;BMP_pressure;BME280_temperature;BME280_humidity;BME280_pressure;Samples;Min_cycle;Max_cycle;Signal;HPM_P1;HPM_P2
2023/05/17 00:01:20;;;;;;;18.73;17.67;;;;;;;;;;5012323;28;20489;-75
2023/05/17 00:03:46;;;;;;;17.23;16.23;;;;;;;;;;5014477;28;20806;-75
2023/05/17 00:06:12;;;;;;;21.07;19.73;;;;;;;;;;5009108;28;20438;-75
2023/05/17 00:08:38;;;;;;;18.90;17.70;;;;;;;;;;5004784;28;20619;-75
2023/05/17 00:11:04;;;;;;;21.50;20.23;;;;;;;;;;5004737;28;20539;-74
2023/05/17 00:13:30;;;;;;;21.33;20.03;;;;;;;;;;5004936;28;20831;-75
2023/05/17 00:15:56;;;;;;;29.60;27.93;;;;;;;;;;5013930;28;20471;-75
2023/05/17 00:18:22;;;;;;;18.57;17.53;;;;;;;;;;5007615;28;20425;-76
2023/05/17 00:20:48;;;;;;;43.90;41.50;;;;;;;;;;5007571;28;20459;-75
2023/05/17 00:23:14;;;;;;;30.07;28.57;;;;;;;;;;5004468;28;20435;-75
2023/05/17 00:25:40;;;;;;;52.83;49.17;;;;;;;;;;5008206;28;20463;-75
2023/05/17 00:28:06;;;;;;;48.93;46.07;;;;;;;;;;5015800;28;20447;-75
2023/05/17 00:30:32;;;;;;;82.10;76.50;;;;;;;;;;5007873;28;20461;-75
2023/05/17 00:32:58;;;;;;;14.60;13.20;;;;;;;;;;5022676;28;20465;-75
2023/05/17 00:35:25;;;;;;;33.20;30.30;;;;;;;;;;5014474;28;21134;-76
2023/05/17 00:37:51;;;;;;;14.77;13.50;;;;;;;;;;5009425;28;20561;-76
2023/05/17 00:40:17;;;;;;;13.27;12.37;;;;;;;;;;5011631;28;20497;-76
2023/05/17 00:42:43;;;;;;;15.93;14.87;;;;;;;;;;5002396;28;20945;-75
2023/05/17 00:45:09;;;;;;;15.03;12.73;;;;;;;;;;5009894;28;20415;-75
2023/05/17 00:47:35;;;;;;;43.40;40.20;;;;;;;;;;5023867;28;20446;-75
2023/05/17 00:50:01;;;;;;;17.60;16.30;;;;;;;;;;5018906;28;20418;-75
2023/05/17 00:52:27;;;;;;;30.47;27.83;;;;;;;;;;5039341;28;20450;-75
2023/05/17 00:54:53;;;;;;;17.23;16.03;;;;;;;;;;5032528;28;20420;-75
2023/05/17 00:57:20;;;;;;;9.27;8.80;;;;;;;;;;5025177;28;20430;-76
2023/05/17 00:59:46;;;;;;;11.13;10.33;;;;;;;;;;5030189;28;20442;-74
2023/05/17 01:02:12;;;;;;;13.33;12.53;;;;;;;;;;5012689;28;20430;-75
2023/05/17 01:04:38;;;;;;;11.83;10.93;;;;;;;;;;5027398;28;20446;-75
2023/05/17 01:07:05;;;;;;;14.70;13.50;;;;;;;;;;5010367;28;20471;-76
2023/05/17 01:09:31;;;;;;;13.63;12.73;;;;;;;;;;5021561;28;20419;-77
2023/05/17 01:12:15;;;;;;;11.47;10.57;;;;;;;;;;5024565;28;20788;-74
2023/05/17 01:14:47;;;;;;;12.73;11.83;;;;;;;;;;5026137;28;20959;-76
2023/05/17 01:17:17;;;;;;;12.70;11.67;;;;;;;;;;5021468;28;20867;-74
2023/05/17 01:19:43;;;;;;;14.90;13.80;;;;;;;;;;5021410;28;20469;-74
2023/05/17 01:22:32;;;;;;;16.77;15.40;;;;;;;;;;5006277;28;20443;-73
2023/05/17 01:25:11;;;;;;;18.80;17.00;;;;;;;;;;5019968;28;20519;-75
2023/05/17 01:27:39;;;;;;;20.40;18.80;;;;;;;;;;4986476;28;20451;-75
2023/05/17 01:30:06;;;;;;;18.00;16.57;;;;;;;;;;5022122;28;20481;-75
2023/05/17 01:32:33;;;;;;;25.03;22.73;;;;;;;;;;5021508;28;20962;-75
2023/05/17 01:34:59;;;;;;;13.10;12.13;;;;;;;;;;5009367;28;20435;-75
2023/05/17 01:37:25;;;;;;;13.30;12.27;;;;;;;;;;5022651;28;20476;-75
2023/05/17 01:39:51;;;;;;;12.97;11.87;;;;;;;;;;5026719;28;20454;-75
2023/05/17 01:42:21;;;;;;;12.83;12.20;;;;;;;;;;5020716;28;20474;-74
2023/05/17 01:45:02;;;;;;;12.50;11.77;;;;;;;;;;5007113;28;20404;-74
2023/05/17 01:47:31;;;;;;;36.83;33.60;;;;;;;;;;5004314;28;20435;-75
2023/05/17 01:49:59;;;;;;;14.87;13.93;;;;;;;;;;5017459;28;20428;-75
2023/05/17 01:52:30;;;;;;;36.97;33.80;;;;;;;;;;5023508;28;20444;-75
2023/05/17 01:55:02;;;;;;;15.90;14.50;;;;;;;;;;5012317;28;20489;-75
2023/05/17 01:57:35;;;;;;;30.97;28.33;;;;;;;;;;5004731;28;20439;-75
2023/05/17 02:00:03;;;;;;;20.13;18.70;;;;;;;;;;5006862;28;20879;-75
2023/05/17 02:02:29;;;;;;;45.37;41.97;;;;;;;;;;5008646;28;20493;-75
2023/05/17 02:04:55;;;;;;;18.47;17.07;;;;;;;;;;5016278;28;20494;-75
2023/05/17 02:07:21;;;;;;;12.37;11.40;;;;;;;;;;5016702;28;20474;-75
2023/05/17 02:09:47;;;;;;;16.30;15.20;;;;;;;;;;4996148;28;20470;-75
2023/05/17 02:12:13;;;;;;;10.80;10.03;;;;;;;;;;5014774;28;20458;-76
2023/05/17 02:14:39;;;;;;;14.73;13.77;;;;;;;;;;4996492;28;20443;-75
2023/05/17 02:17:06;;;;;;;8.10;7.70;;;;;;;;;;5014460;28;20454;-75
2023/05/17 02:19:32;;;;;;;10.03;9.47;;;;;;;;;;5005295;28;20451;-75
2023/05/17 02:21:58;;;;;;;12.77;11.73;;;;;;;;;;5016145;28;20533;-74
2023/05/17 02:24:25;;;;;;;10.13;9.20;;;;;;;;;;5015294;28;20478;-75
2023/05/17 02:26:51;;;;;;;11.03;10.00;;;;;;;;;;5014534;28;20434;-75
2023/05/17 02:29:17;;;;;;;13.63;12.73;;;;;;;;;;5007574;28;20886;-75
2023/05/17 02:31:44;;;;;;;13.07;12.03;;;;;;;;;;5013591;28;20436;-75
2023/05/17 02:34:10;;;;;;;12.27;11.63;;;;;;;;;;5008900;28;20435;-75
2023/05/17 02:36:36;;;;;;;14.93;13.77;;;;;;;;;;5004187;28;20435;-75
2023/05/17 02:39:02;;;;;;;12.07;11.00;;;;;;;;;;5011265;28;20796;-75
2023/05/17 02:41:28;;;;;;;17.67;16.07;;;;;;;;;;5004971;28;20832;-75
2023/05/17 02:43:54;;;;;;;12.50;11.90;;;;;;;;;;5011595;28;20436;-74
2023/05/17 02:46:21;;;;;;;14.33;13.33;;;;;;;;;;5021276;28;20909;-75
2023/05/17 02:48:47;;;;;;;15.27;14.17;;;;;;;;;;5035974;28;20415;-74
2023/05/17 02:51:13;;;;;;;12.17;11.53;;;;;;;;;;5027718;28;20458;-74
2023/05/17 02:53:39;;;;;;;12.27;11.50;;;;;;;;;;5013146;28;20435;-75
2023/05/17 02:56:05;;;;;;;12.63;11.57;;;;;;;;;;5010359;28;20454;-75
2023/05/17 02:58:31;;;;;;;18.83;17.53;;;;;;;;;;5016054;28;20789;-75
2023/05/17 03:00:57;;;;;;;15.70;14.77;;;;;;;;;;5022270;28;20470;-75
2023/05/17 03:03:28;;;;;;;16.93;15.83;;;;;;;;;;5013014;28;20443;-75
2023/05/17 03:05:54;;;;;;;16.77;15.83;;;;;;;;;;5009333;28;20442;-74
2023/05/17 03:08:21;;;;;;;28.57;26.30;;;;;;;;;;5008807;28;20918;-74
2023/05/17 03:10:47;;;;;;;15.33;14.03;;;;;;;;;;5014148;28;21015;-75
2023/05/17 03:13:13;;;;;;;9.48;8.70;;;;;;;;;;5015582;28;20395;-74
2023/05/17 03:15:39;;;;;;;14.98;13.60;;;;;;;;;;5021863;28;20414;-75
2023/05/17 03:18:05;;;;;;;7.22;6.60;;;;;;;;;;5003210;28;20400;-75
2023/05/17 03:20:31;;;;;;;7.13;6.63;;;;;;;;;;5008429;28;20769;-75
2023/05/17 03:22:57;;;;;;;8.13;7.55;;;;;;;;;;5008328;28;20387;-75
2023/05/17 03:25:23;;;;;;;9.70;9.00;;;;;;;;;;5008933;28;20398;-75
2023/05/17 03:27:49;;;;;;;10.83;9.97;;;;;;;;;;4986701;28;20840;-75
2023/05/17 03:30:15;;;;;;;11.80;10.60;;;;;;;;;;5016513;28;20393;-75
2023/05/17 03:32:41;;;;;;;12.40;11.43;;;;;;;;;;5017176;28;20905;-75
2023/05/17 03:35:07;;;;;;;11.73;9.98;;;;;;;;;;5004439;28;20400;-75
2023/05/17 03:37:34;;;;;;;46.43;42.90;;;;;;;;;;5006108;28;20561;-75
2023/05/17 03:40:00;;;;;;;9.50;8.48;;;;;;;;;;5014238;28;20406;-76
2023/05/17 03:42:26;;;;;;;11.63;10.63;;;;;;;;;;5013571;28;20487;-76
2023/05/17 03:44:52;;;;;;;11.82;10.93;;;;;;;;;;5004588;28;20768;-75
2023/05/17 03:47:18;;;;;;;9.02;8.40;;;;;;;;;;5001349;28;21096;-76
2023/05/17 03:49:44;;;;;;;39.17;36.77;;;;;;;;;;4994750;28;20617;-74
2023/05/17 03:52:10;;;;;;;98.80;90.50;;;;;;;;;;5008033;28;20446;-75
2023/05/17 03:54:36;;;;;;;51.78;48.58;;;;;;;;;;5002905;28;20867;-75
2023/05/17 03:57:02;;;;;;;83.57;77.23;;;;;;;;;;5012152;28;20199;-75
2023/05/17 03:59:28;;;;;;;63.47;59.88;;;;;;;;;;5012413;28;20412;-75
2023/05/17 04:01:54;;;;;;;81.13;75.07;;;;;;;;;;5023265;28;20212;-75
2023/05/17 04:04:20;;;;;;;40.90;38.30;;;;;;;;;;5003634;28;20397;-76
2023/05/17 04:06:46;;;;;;;22.70;21.27;;;;;;;;;;5019977;28;20411;-75
2023/05/17 04:09:14;;;;;;;94.40;87.10;;;;;;;;;;5014502;28;20438;-76
2023/05/17 04:11:40;;;;;;;117.77;107.27;;;;;;;;;;5006987;28;20876;-76
2023/05/17 04:14:06;;;;;;;140.70;133.85;;;;;;;;;;5015063;28;20555;-77
2023/05/17 04:16:32;;;;;;;;;;;;;;;;;;5011035;28;20211;-76
2023/05/17 04:18:59;;;;;;;138.85;132.40;;;;;;;;;;5007786;28;20868;-76
2023/05/17 04:21:25;;;;;;;86.65;82.55;;;;;;;;;;5008907;28;20408;-76
2023/05/17 04:23:51;;;;;;;125.67;115.47;;;;;;;;;;5009610;28;20215;-75
2023/05/17 04:26:18;;;;;;;112.13;105.60;;;;;;;;;;5023921;28;20856;-77
2023/05/17 04:28:44;;;;;;;90.60;86.15;;;;;;;;;;5014881;28;20407;-75
2023/05/17 04:31:10;;;;;;;77.90;73.57;;;;;;;;;;5013779;28;20400;-76
2023/05/17 04:33:36;;;;;;;83.23;76.87;;;;;;;;;;5003644;28;20442;-76
2023/05/17 04:36:03;;;;;;;52.93;49.17;;;;;;;;;;5015160;28;20482;-76
2023/05/17 04:38:29;;;;;;;66.97;61.93;;;;;;;;;;5024118;28;20546;-75
2023/05/17 04:41:05;;;;;;;84.57;78.63;;;;;;;;;;5020277;28;20934;-76
2023/05/17 04:43:32;;;;;;;86.43;79.00;;;;;;;;;;5014286;28;20450;-75
2023/05/17 04:45:58;;;;;;;99.63;92.70;;;;;;;;;;5039477;28;20485;-76
2023/05/17 04:48:25;;;;;;;72.73;67.57;;;;;;;;;;5026077;28;20837;-75
2023/05/17 04:50:52;;;;;;;30.83;28.73;;;;;;;;;;5011427;28;20908;-75
2023/05/17 04:53:18;;;;;;;83.23;76.60;;;;;;;;;;5014778;28;20227;-74
2023/05/17 04:55:44;;;;;;;74.77;69.00;;;;;;;;;;5017995;28;20465;-74
2023/05/17 04:58:10;;;;;;;83.23;77.97;;;;;;;;;;5017716;28;20449;-74
2023/05/17 05:00:36;;;;;;;149.97;139.73;;;;;;;;;;5018239;28;20465;-75
2023/05/17 05:03:03;;;;;;;120.27;111.47;;;;;;;;;;5029700;28;20462;-74
2023/05/17 05:05:30;;;;;;;288.70;267.77;;;;;;;;;;5021670;28;20426;-74
2023/05/17 05:07:56;;;;;;;178.97;163.97;;;;;;;;;;5022216;28;20442;-75
2023/05/17 05:10:23;;;;;;;170.70;155.83;;;;;;;;;;5005767;28;20854;-74
2023/05/17 05:12:49;;;;;;;144.87;131.97;;;;;;;;;;5024965;28;20529;-75
2023/05/17 05:15:15;;;;;;;161.50;149.30;;;;;;;;;;5015799;28;20437;-74
2023/05/17 05:17:41;;;;;;;139.43;130.17;;;;;;;;;;5033055;28;20897;-76
2023/05/17 05:20:08;;;;;;;162.10;150.97;;;;;;;;;;5008933;28;20553;-77
2023/05/17 05:22:35;;;;;;;179.60;166.87;;;;;;;;;;5017007;28;20476;-76
2023/05/17 05:25:01;;;;;;;254.60;236.40;;;;;;;;;;5029437;28;21080;-76
2023/05/17 05:27:27;;;;;;;232.20;216.17;;;;;;;;;;5026383;28;20435;-76
2023/05/17 05:29:54;;;;;;;233.63;216.93;;;;;;;;;;5020591;28;20465;-75
2023/05/17 05:32:20;;;;;;;166.30;155.90;;;;;;;;;;5005241;28;20458;-76
2023/05/17 05:34:47;;;;;;;191.37;179.57;;;;;;;;;;5014129;28;20450;-75
2023/05/17 05:37:13;;;;;;;259.93;242.90;;;;;;;;;;5012557;28;20706;-77
2023/05/17 05:39:39;;;;;;;259.20;242.63;;;;;;;;;;5023638;28;20527;-76
2023/05/17 05:42:05;;;;;;;177.10;167.07;;;;;;;;;;5017593;28;20442;-75
2023/05/17 05:44:31;;;;;;;203.60;190.87;;;;;;;;;;5025805;28;20422;-76
2023/05/17 05:46:57;;;;;;;194.27;182.37;;;;;;;;;;5010239;28;20452;-76
2023/05/17 05:49:23;;;;;;;219.60;206.30;;;;;;;;;;5025516;28;20893;-77
2023/05/17 05:51:49;;;;;;;242.27;228.37;;;;;;;;;;5020656;28;20446;-76
2023/05/17 05:54:15;;;;;;;293.37;276.70;;;;;;;;;;5018741;28;20440;-77
2023/05/17 05:56:42;;;;;;;193.23;183.20;;;;;;;;;;5016788;28;20447;-77
2023/05/17 05:59:08;;;;;;;138.63;131.37;;;;;;;;;;5024043;28;21114;-77
2023/05/17 06:01:34;;;;;;;118.07;111.97;;;;;;;;;;5023981;28;20469;-77
2023/05/17 06:04:00;;;;;;;121.30;115.47;;;;;;;;;;5035767;28;20533;-77
2023/05/17 06:06:25;;;;;;;83.13;78.63;;;;;;;;;;5011841;28;20467;-76
2023/05/17 06:08:52;;;;;;;95.67;90.67;;;;;;;;;;5022414;28;20866;-76
2023/05/17 06:11:19;;;;;;;120.70;114.57;;;;;;;;;;5013644;28;20431;-77
2023/05/17 06:13:45;;;;;;;83.17;78.47;;;;;;;;;;5011542;28;20852;-75
2023/05/17 06:16:11;;;;;;;68.27;64.57;;;;;;;;;;5013515;28;20436;-76
2023/05/17 06:18:37;;;;;;;112.67;106.87;;;;;;;;;;5015146;28;20416;-76
2023/05/17 06:21:03;;;;;;;140.23;132.83;;;;;;;;;;5017830;28;21563;-76
2023/05/17 06:23:29;;;;;;;84.50;80.10;;;;;;;;;;5003638;28;20526;-76
2023/05/17 06:25:55;;;;;;;188.37;176.00;;;;;;;;;;5001100;28;20440;-74
2023/05/17 06:28:21;;;;;;;115.30;109.80;;;;;;;;;;5014670;28;20454;-77
2023/05/17 06:30:47;;;;;;;92.97;87.47;;;;;;;;;;5028705;28;20426;-75
2023/05/17 06:33:13;;;;;;;90.90;86.33;;;;;;;;;;5010947;28;20451;-76
2023/05/17 06:35:39;;;;;;;120.27;114.27;;;;;;;;;;5017307;28;20525;-77
2023/05/17 06:38:05;;;;;;;134.57;127.67;;;;;;;;;;5000805;28;20470;-76
2023/05/17 06:40:31;;;;;;;142.60;135.40;;;;;;;;;;5017869;28;20518;-76
2023/05/17 06:42:57;;;;;;;157.07;149.57;;;;;;;;;;5013989;28;20454;-77
2023/05/17 06:45:25;;;;;;;129.27;123.33;;;;;;;;;;5035167;28;20443;-77
2023/05/17 06:47:51;;;;;;;86.23;81.83;;;;;;;;;;5042683;28;20423;-74
2023/05/17 06:50:17;;;;;;;78.57;74.27;;;;;;;;;;5032315;28;20434;-76
2023/05/17 06:52:43;;;;;;;96.63;90.83;;;;;;;;;;5020340;28;20442;-77
2023/05/17 06:55:10;;;;;;;61.17;57.67;;;;;;;;;;5024454;28;20414;-78
2023/05/17 06:57:36;;;;;;;53.10;50.20;;;;;;;;;;5025232;28;20481;-76
2023/05/17 07:00:05;;;;;;;90.93;86.20;;;;;;;;;;5018141;28;20993;-77
2023/05/17 07:02:31;;;;;;;78.40;73.50;;;;;;;;;;5019514;28;20453;-75
2023/05/17 07:04:57;;;;;;;74.93;70.63;;;;;;;;;;5009655;28;20451;-74
2023/05/17 07:07:23;;;;;;;76.33;71.67;;;;;;;;;;5014335;28;20436;-74
2023/05/17 07:09:49;;;;;;;56.83;53.07;;;;;;;;;;5020064;28;20484;-76
2023/05/17 07:12:15;;;;;;;53.50;49.73;;;;;;;;;;5019089;28;20435;-75
2023/05/17 07:14:41;;;;;;;63.20;58.67;;;;;;;;;;5017496;28;20438;-76
2023/05/17 07:17:07;;;;;;;72.63;68.70;;;;;;;;;;5027449;28;20776;-76
2023/05/17 07:19:33;;;;;;;65.73;61.77;;;;;;;;;;5012818;28;20435;-74
2023/05/17 07:21:59;;;;;;;67.37;61.00;;;;;;;;;;5020895;28;20481;-75
2023/05/17 07:24:26;;;;;;;47.13;43.20;;;;;;;;;;5001585;28;20458;-76
2023/05/17 07:26:52;;;;;;;29.33;27.33;;;;;;;;;;5013054;28;20435;-75
2023/05/17 07:29:23;;;;;;;42.33;39.87;;;;;;;;;;5014044;28;20464;-76
2023/05/17 07:31:49;;;;;;;54.37;50.90;;;;;;;;;;4998275;28;20509;-76
2023/05/17 07:34:15;;;;;;;76.93;73.10;;;;;;;;;;5005263;28;21033;-75
2023/05/17 07:36:41;;;;;;;40.43;37.80;;;;;;;;;;5016599;28;20514;-77
2023/05/17 07:39:08;;;;;;;55.73;52.33;;;;;;;;;;5016733;28;20531;-76
2023/05/17 07:41:34;;;;;;;47.60;44.50;;;;;;;;;;5023718;28;20839;-77
2023/05/17 07:44:01;;;;;;;31.83;30.07;;;;;;;;;;5008771;28;20958;-77
2023/05/17 07:46:27;;;;;;;37.90;35.87;;;;;;;;;;5011309;28;20465;-77
2023/05/17 07:48:53;;;;;;;13.40;12.53;;;;;;;;;;5019066;28;20436;-77
2023/05/17 07:51:18;;;;;;;18.17;17.03;;;;;;;;;;5011639;28;20485;-75
2023/05/17 07:53:45;;;;;;;30.37;28.47;;;;;;;;;;5002615;28;20502;-74
2023/05/17 07:56:11;;;;;;;48.40;45.57;;;;;;;;;;5026536;28;20429;-74
2023/05/17 07:58:37;;;;;;;40.57;38.13;;;;;;;;;;5008296;28;20439;-78
2023/05/17 08:01:03;;;;;;;24.83;22.90;;;;;;;;;;5017978;28;20966;-76
2023/05/17 08:03:29;;;;;;;28.90;26.90;;;;;;;;;;5011532;28;20507;-77
2023/05/17 08:05:55;;;;;;;9.20;6.70;;;;;;;;;;5015899;28;20418;-77
2023/05/17 08:08:21;;;;;;;14.37;8.30;;;;;;;;;;5020824;28;20487;-78
2023/05/17 08:10:48;;;;;;;11.07;10.07;;;;;;;;;;5019393;28;20781;-76
2023/05/17 08:13:14;;;;;;;6.80;6.13;;;;;;;;;;5013081;28;20442;-76
2023/05/17 08:15:41;;;;;;;12.30;11.03;;;;;;;;;;5001492;28;20419;-76
2023/05/17 08:18:07;;;;;;;23.13;21.77;;;;;;;;;;5012050;28;20538;-77
2023/05/17 08:20:33;;;;;;;41.10;38.70;;;;;;;;;;5027248;28;20548;-77
2023/05/17 08:22:59;;;;;;;67.10;62.40;;;;;;;;;;5012631;28;20800;-75
2023/05/17 08:25:25;;;;;;;43.13;40.43;;;;;;;;;;5015197;28;20457;-77
2023/05/17 08:27:52;;;;;;;154.17;145.47;;;;;;;;;;5014377;28;20441;-76
2023/05/17 08:30:18;;;;;;;36.67;34.10;;;;;;;;;;5023976;28;20459;-76
2023/05/17 08:32:44;;;;;;;155.67;145.40;;;;;;;;;;5022243;28;20992;-77
2023/05/17 08:35:11;;;;;;;62.57;59.27;;;;;;;;;;5021223;28;20422;-77
2023/05/17 08:37:37;;;;;;;39.40;36.57;;;;;;;;;;5015253;28;20435;-77
2023/05/17 08:40:03;;;;;;;62.17;59.17;;;;;;;;;;5004442;28;21018;-78
2023/05/17 08:42:29;;;;;;;66.87;62.77;;;;;;;;;;5025399;28;20433;-75
2023/05/17 08:44:56;;;;;;;51.03;48.40;;;;;;;;;;5023928;28;20461;-77
2023/05/17 08:47:25;;;;;;;102.80;98.20;;;;;;;;;;5041942;28;20434;-78
2023/05/17 08:49:56;;;;;;;72.87;68.97;;;;;;;;;;5034212;28;20526;-77
2023/05/17 08:52:22;;;;;;;51.27;48.47;;;;;;;;;;5025313;28;20430;-77
2023/05/17 08:54:48;;;;;;;12.70;10.93;;;;;;;;;;5007398;28;21070;-78
2023/05/17 08:57:19;;;;;;;7.68;6.00;;;;;;;;;;5020439;28;20399;-78
2023/05/17 08:59:45;;;;;;;88.17;84.03;;;;;;;;;;5029343;28;20187;-75
2023/05/17 09:02:12;;;;;;;72.77;69.37;;;;;;;;;;5010726;28;20437;-75
2023/05/17 09:04:39;;;;;;;37.63;35.13;;;;;;;;;;5022386;28;21035;-76
2023/05/17 09:07:05;;;;;;;68.83;65.40;;;;;;;;;;5025289;28;20433;-75
2023/05/17 09:09:31;;;;;;;90.00;86.13;;;;;;;;;;5020481;28;20489;-75
2023/05/17 09:11:57;;;;;;;10.75;9.32;;;;;;;;;;5028118;28;20428;-76
2023/05/17 09:14:23;;;;;;;54.97;52.23;;;;;;;;;;5030648;28;20194;-77
2023/05/17 09:16:56;;;;;;;26.77;25.07;;;;;;;;;;5015325;28;20450;-75
2023/05/17 09:19:22;;;;;;;18.80;17.77;;;;;;;;;;4999822;28;20533;-76
2023/05/17 09:21:48;;;;;;;33.93;31.83;;;;;;;;;;5022433;28;20963;-76
2023/05/17 09:24:14;;;;;;;24.53;22.77;;;;;;;;;;5023459;28;20449;-77
2023/05/17 09:26:44;;;;;;;17.30;15.93;;;;;;;;;;5012682;28;20451;-77
2023/05/17 09:29:14;;;;;;;68.13;63.00;;;;;;;;;;5017834;28;20980;-76
2023/05/17 09:31:40;;;;;;;27.33;25.13;;;;;;;;;;5015906;28;20450;-76
2023/05/17 09:34:08;;;;;;;35.83;32.60;;;;;;;;;;5001562;28;20450;-76
2023/05/17 09:36:38;;;;;;;13.97;12.53;;;;;;;;;;5021844;28;20488;-77
2023/05/17 09:39:05;;;;;;;16.40;13.10;;;;;;;;;;5019694;28;20542;-77
2023/05/17 09:41:45;;;;;;;14.87;13.70;;;;;;;;;;5016832;28;20239;-77
2023/05/17 09:44:12;;;;;;;26.07;18.17;;;;;;;;;;5016325;28;20956;-77
2023/05/17 09:46:41;;;;;;;65.10;62.13;;;;;;;;;;5016146;28;20422;-78
2023/05/17 09:49:08;;;;;;;53.93;47.27;;;;;;;;;;5001852;28;20454;-77
2023/05/17 09:51:34;;;;;;;27.67;25.80;;;;;;;;;;5014461;28;20443;-78
2023/05/17 09:54:00;;;;;;;16.37;15.00;;;;;;;;;;5019620;28;20519;-78
2023/05/17 09:56:30;;;;;;;12.27;11.30;;;;;;;;;;5024363;28;20671;-77
2023/05/17 09:58:57;;;;;;;12.33;11.07;;;;;;;;;;5033782;28;20483;-75
2023/05/17 10:01:26;;;;;;;20.00;18.43;;;;;;;;;;5017171;28;20558;-77
2023/05/17 10:03:53;;;;;;;32.67;30.73;;;;;;;;;;5035630;28;21091;-78
2023/05/17 10:06:21;;;;;;;30.53;28.53;;;;;;;;;;5010144;28;20432;-77
2023/05/17 10:08:50;;;;;;;24.50;22.73;;;;;;;;;;5024128;28;20769;-78
2023/05/17 10:11:17;;;;;;;29.63;26.93;;;;;;;;;;5009790;28;20820;-77
2023/05/17 10:13:49;;;;;;;20.87;19.10;;;;;;;;;;5012201;28;20435;-76
2023/05/17 10:16:16;;;;;;;31.13;29.47;;;;;;;;;;5016372;28;20546;-76
2023/05/17 10:18:42;;;;;;;8.35;7.55;;;;;;;;;;5009601;28;20401;-76
2023/05/17 10:21:09;;;;;;;37.20;35.17;;;;;;;;;;5028725;28;20215;-76
2023/05/17 10:23:37;;;;;;;14.63;13.53;;;;;;;;;;4993264;28;21046;-76
2023/05/17 10:26:07;;;;;;;10.97;10.17;;;;;;;;;;5027350;28;20525;-76
2023/05/17 10:28:34;;;;;;;12.47;11.40;;;;;;;;;;5020410;28;20446;-78
2023/05/17 10:31:00;;;;;;;18.00;16.70;;;;;;;;;;5016789;28;20934;-76
2023/05/17 10:33:27;;;;;;;40.37;37.77;;;;;;;;;;5019445;28;20729;-77
2023/05/17 10:35:54;;;;;;;40.97;38.47;;;;;;;;;;5022246;28;20455;-77
2023/05/17 10:38:22;;;;;;;24.70;23.23;;;;;;;;;;5030056;28;20434;-75
2023/05/17 10:40:48;;;;;;;146.93;139.77;;;;;;;;;;5009571;28;20870;-76
2023/05/17 10:43:15;;;;;;;36.70;34.57;;;;;;;;;;5052884;28;20440;-76
2023/05/17 10:45:42;;;;;;;17.30;15.87;;;;;;;;;;5037428;28;20509;-76
2023/05/17 10:48:08;;;;;;;60.20;57.03;;;;;;;;;;5043289;28;20438;-76
2023/05/17 10:50:37;;;;;;;37.57;35.37;;;;;;;;;;5026261;28;20450;-76
2023/05/17 10:53:07;;;;;;;22.63;21.07;;;;;;;;;;5017628;28;20434;-76
2023/05/17 10:55:38;;;;;;;6.60;6.00;;;;;;;;;;5016203;28;20441;-77
2023/05/17 10:58:10;;;;;;;5.15;4.75;;;;;;;;;;5018293;28;20401;-78
2023/05/17 11:01:06;;;;;;;4.60;4.30;;;;;;;;;;5011583;28;20409;-76
2023/05/17 11:03:33;;;;;;;6.70;5.80;;;;;;;;;;5011539;28;20484;-77
2023/05/17 11:06:05;;;;;;;4.60;4.30;;;;;;;;;;5014227;28;20819;-77
2023/05/17 11:08:32;;;;;;;5.78;5.28;;;;;;;;;;5003471;28;20399;-77
2023/05/17 11:11:12;;;;;;;10.83;10.03;;;;;;;;;;5026506;28;20199;-78
2023/05/17 11:13:50;;;;;;;7.43;5.20;;;;;;;;;;5022493;28;20402;-78
2023/05/17 11:16:20;;;;;;;5.57;5.18;;;;;;;;;;5008729;28;20906;-78
2023/05/17 11:18:50;;;;;;;6.03;5.63;;;;;;;;;;5025501;28;20218;-78
2023/05/17 11:21:16;;;;;;;5.82;4.78;;;;;;;;;;5006704;28;20899;-77
2023/05/17 11:24:03;;;;;;;8.30;5.83;;;;;;;;;;5030360;28;20207;-76
2023/05/17 11:26:33;;;;;;;9.90;7.17;;;;;;;;;;5009515;28;20442;-77
2023/05/17 11:29:12;;;;;;;6.50;5.67;;;;;;;;;;5021211;28;20451;-77
2023/05/17 11:31:43;;;;;;;9.20;8.40;;;;;;;;;;5021516;28;20470;-77
2023/05/17 11:34:09;;;;;;;25.80;23.27;;;;;;;;;;5019719;28;20506;-79
2023/05/17 11:36:52;;;;;;;6.28;5.78;;;;;;;;;;5014558;28;20756;-74
2023/05/17 11:39:20;;;;;;;20.52;18.88;;;;;;;;;;5001843;28;21065;-76
2023/05/17 11:41:54;;;;;;;19.17;17.93;;;;;;;;;;5015951;28;20205;-74
2023/05/17 11:44:33;;;;;;;10.13;9.37;;;;;;;;;;5026978;28;20446;-77
2023/05/17 11:47:03;;;;;;;13.73;12.60;;;;;;;;;;5009313;28;20426;-75
2023/05/17 11:49:31;;;;;;;7.63;6.93;;;;;;;;;;4997485;28;20397;-75
2023/05/17 11:51:58;;;;;;;7.20;6.70;;;;;;;;;;5015584;28;20537;-75
2023/05/17 11:54:26;;;;;;;5.60;5.05;;;;;;;;;;5016329;28;20465;-75
2023/05/17 11:56:53;;;;;;;34.47;32.53;;;;;;;;;;5002916;28;20189;-75
2023/05/17 11:59:22;;;;;;;10.50;9.77;;;;;;;;;;5017961;28;21037;-77
2023/05/17 12:01:49;;;;;;;12.03;11.07;;;;;;;;;;5006390;28;20497;-78
2023/05/17 12:04:26;;;;;;;26.67;24.43;;;;;;;;;;5016254;28;20436;-75
2023/05/17 12:07:11;;;;;;;8.93;8.23;;;;;;;;;;5012917;28;20491;-76
2023/05/17 12:09:39;;;;;;;20.77;18.87;;;;;;;;;;4993859;28;20442;-76
2023/05/17 12:12:05;;;;;;;6.87;6.43;;;;;;;;;;5008309;28;20420;-76
2023/05/17 12:14:31;;;;;;;9.50;8.70;;;;;;;;;;5002993;28;20474;-76
2023/05/17 12:16:59;;;;;;;10.80;10.00;;;;;;;;;;5004096;28;20430;-75
2023/05/17 12:19:28;;;;;;;13.80;8.03;;;;;;;;;;5014318;28;20503;-77
2023/05/17 12:21:54;;;;;;;10.00;9.30;;;;;;;;;;5005720;28;20527;-76
2023/05/17 12:24:20;;;;;;;13.27;11.90;;;;;;;;;;5021473;28;20459;-79
2023/05/17 12:26:47;;;;;;;11.50;10.50;;;;;;;;;;4997547;28;20436;-77
2023/05/17 12:29:14;;;;;;;5.47;4.30;;;;;;;;;;5011451;28;21002;-77
2023/05/17 12:31:42;;;;;;;5.90;4.68;;;;;;;;;;5018293;28;20419;-77
2023/05/17 12:34:11;;;;;;;6.30;5.68;;;;;;;;;;5000627;28;20395;-76
2023/05/17 12:36:37;;;;;;;7.35;6.45;;;;;;;;;;5001186;28;20878;-77
2023/05/17 12:39:05;;;;;;;5.90;5.53;;;;;;;;;;5017305;28;20933;-77
2023/05/17 12:41:31;;;;;;;22.87;21.37;;;;;;;;;;5019859;28;20524;-75
2023/05/17 12:43:57;;;;;;;;;;;;;;;;;;5021861;28;20290;-77
2023/05/17 12:46:24;;;;;;;7.25;6.65;;;;;;;;;;5022327;28;20480;-75
2023/05/17 12:48:51;;;;;;;9.87;9.20;;;;;;;;;;5042054;28;20180;-76
2023/05/17 12:51:21;;;;;;;9.33;8.43;;;;;;;;;;5022932;28;20526;-77
2023/05/17 12:53:51;;;;;;;8.80;8.03;;;;;;;;;;4999168;28;20542;-76
2023/05/17 12:56:24;;;;;;;8.03;7.47;;;;;;;;;;5012526;28;20714;-76
2023/05/17 12:59:15;;;;;;;6.43;5.93;;;;;;;;;;5014511;28;20489;-76
2023/05/17 13:01:45;;;;;;;9.33;8.43;;;;;;;;;;5021731;28;20459;-76
2023/05/17 13:04:12;;;;;;;8.03;7.40;;;;;;;;;;5021508;28;20465;-76
2023/05/17 13:06:44;;;;;;;10.57;9.53;;;;;;;;;;5023471;28;20882;-78
2023/05/17 13:09:10;;;;;;;11.80;10.90;;;;;;;;;;5018412;28;20450;-75
2023/05/17 13:11:40;;;;;;;40.23;38.23;;;;;;;;;;5015472;28;20439;-76
2023/05/17 13:14:06;;;;;;;153.83;147.80;;;;;;;;;;5014593;28;20534;-78
2023/05/17 13:16:33;;;;;;;189.97;181.90;;;;;;;;;;5004189;28;20522;-76
2023/05/17 13:18:59;;;;;;;167.17;159.17;;;;;;;;;;5019529;28;20802;-76
2023/05/17 13:21:25;;;;;;;87.33;83.30;;;;;;;;;;5012551;28;20465;-77
2023/05/17 13:23:53;;;;;;;55.13;52.43;;;;;;;;;;5012184;28;20454;-77
2023/05/17 13:26:20;;;;;;;144.97;138.47;;;;;;;;;;5019559;28;20422;-77
2023/05/17 13:28:46;;;;;;;183.40;175.23;;;;;;;;;;5021011;28;20922;-78
2023/05/17 13:31:12;;;;;;;166.20;158.57;;;;;;;;;;5007963;28;20415;-76
2023/05/17 13:33:38;;;;;;;219.37;209.80;;;;;;;;;;5005941;28;20914;-76
2023/05/17 13:36:05;;;;;;;189.17;181.00;;;;;;;;;;5020179;28;20415;-76
2023/05/17 13:38:31;;;;;;;34.10;31.97;;;;;;;;;;4998368;28;20446;-75
2023/05/17 13:40:57;;;;;;;138.60;132.50;;;;;;;;;;5016642;28;20740;-77
2023/05/17 13:43:24;;;;;;;43.03;40.53;;;;;;;;;;5004533;28;20676;-79
2023/05/17 13:45:55;;;;;;;31.87;29.97;;;;;;;;;;5025663;28;20425;-77
2023/05/17 13:48:21;;;;;;;75.40;71.10;;;;;;;;;;5011217;28;20431;-77
2023/05/17 13:50:47;;;;;;;10.67;9.60;;;;;;;;;;5031736;28;20990;-76
2023/05/17 13:53:13;;;;;;;14.77;13.37;;;;;;;;;;5019298;28;20449;-77
2023/05/17 13:55:42;;;;;;;9.07;7.47;;;;;;;;;;5017669;28;20403;-77
2023/05/17 13:58:08;;;;;;;14.60;13.60;;;;;;;;;;5015354;28;20803;-76
2023/05/17 14:00:34;;;;;;;58.17;54.97;;;;;;;;;;5017302;28;20461;-78
2023/05/17 14:03:00;;;;;;;176.77;168.67;;;;;;;;;;5026389;28;20453;-77
2023/05/17 14:05:26;;;;;;;7.80;7.07;;;;;;;;;;5019388;28;20458;-76
2023/05/17 14:07:52;;;;;;;10.17;9.20;;;;;;;;;;5023304;28;20437;-77
2023/05/17 14:10:18;;;;;;;8.47;7.77;;;;;;;;;;5022209;28;20675;-77
2023/05/17 14:12:47;;;;;;;8.30;7.77;;;;;;;;;;5021203;28;20532;-76
2023/05/17 14:15:14;;;;;;;13.30;12.30;;;;;;;;;;5016580;28;20505;-76
2023/05/17 14:17:40;;;;;;;41.93;39.77;;;;;;;;;;5015030;28;21071;-76
2023/05/17 14:20:06;;;;;;;11.17;10.47;;;;;;;;;;5006516;28;20452;-76